Atlanta, Georgia
Traffic Map
Current Weather Conditions
Atlanta, Georgia
Broken Clouds
Broken Clouds

Feels Like: 4°
Wind Chill: Ceiling: 4000
Heat Index: Visibility: 10mi
Dew Point: -1° Wind: 6mph
Humidity: 65% Direction: ° ()
Pressure: 30.42in Gusts: 0mph
Raw Report DataKATL 061652Z VRB05KT 10SM FEW025 BKN040 06/M01 A3042 RMK AO2 SLP311 T00561006
Traffic Incident Summary
Active as of:
Severity:
Category:
InformationThere was an issue retrieving the traffic information for this location. Please try a different location or try again shortly.
Advertisements
Track Severe Weather on mobile